createdAt,value
2022-08-09T00:00:35.828Z,70.85
2022-08-09T00:02:49.230Z,70.94
2022-08-09T00:05:03.064Z,71.34
2022-08-09T00:07:18.249Z,70.99
2022-08-09T00:09:21.583Z,70.99
2022-08-09T00:12:03.402Z,71.25
2022-08-09T00:13:53.300Z,71.29
2022-08-09T00:16:02.758Z,71.50
2022-08-09T00:18:11.488Z,71.63
2022-08-09T00:20:17.530Z,71.88
2022-08-09T00:22:22.477Z,71.99
2022-08-09T00:24:27.749Z,71.94
2022-08-09T00:26:32.983Z,71.96
2022-08-09T00:28:37.945Z,71.61
2022-08-09T00:30:42.665Z,71.54
2022-08-09T00:32:46.671Z,71.28
2022-08-09T00:34:51.962Z,71.20
2022-08-09T00:36:57.226Z,71.50
2022-08-09T00:39:02.545Z,71.40
2022-08-09T00:41:09.339Z,71.64
2022-08-09T00:44:13.490Z,72.24
2022-08-09T00:45:58.308Z,72.21
2022-08-09T00:48:02.461Z,71.99
2022-08-09T00:50:14.306Z,71.91
2022-08-09T00:52:19.897Z,71.66
2022-08-09T00:54:31.442Z,71.43
2022-08-09T00:56:39.340Z,71.40
2022-08-09T00:58:43.501Z,71.29
2022-08-09T01:00:55.940Z,71.32
2022-08-09T01:03:12.564Z,71.09
2022-08-09T01:05:54.349Z,70.96
2022-08-09T01:08:01.495Z,70.98
2022-08-09T01:10:11.015Z,71.00
2022-08-09T01:12:24.467Z,71.27
2022-08-09T01:14:33.467Z,71.20
2022-08-09T01:16:47.503Z,71.02
2022-08-09T01:19:01.991Z,71.51
2022-08-09T01:21:20.902Z,71.84
2022-08-09T01:24:02.678Z,71.83
2022-08-09T01:26:23.981Z,71.70
2022-08-09T01:28:33.040Z,71.39
2022-08-09T01:30:51.922Z,71.63
2022-08-09T01:32:59.898Z,71.49
2022-08-09T01:35:28.606Z,71.67
2022-08-09T01:38:05.581Z,70.96
2022-08-09T01:40:02.805Z,71.50
2022-08-09T01:42:11.297Z,71.61
2022-08-09T01:44:18.107Z,71.73
2022-08-09T01:46:27.452Z,71.63
2022-08-09T01:48:32.926Z,71.87
2022-08-09T01:50:41.792Z,71.99
2022-08-09T01:52:47.756Z,72.11
2022-08-09T01:54:57.809Z,72.36
2022-08-09T01:57:08.254Z,72.46
2022-08-09T01:59:17.161Z,72.63
2022-08-09T02:01:57.999Z,72.58
2022-08-09T02:03:50.345Z,72.80
2022-08-09T02:06:03.916Z,72.40
2022-08-09T02:08:41.255Z,72.58
2022-08-09T02:10:42.825Z,72.58
2022-08-09T02:12:56.381Z,72.55
2022-08-09T02:15:02.805Z,72.66
2022-08-09T02:17:54.980Z,72.71
2022-08-09T02:19:43.549Z,72.74
2022-08-09T02:21:55.528Z,72.91
2022-08-09T02:24:01.970Z,72.80
2022-08-09T02:26:07.685Z,72.86
2022-08-09T02:28:35.557Z,73.39
2022-08-09T02:30:43.532Z,73.09
2022-08-09T02:32:54.538Z,73.07
2022-08-09T02:35:17.352Z,73.33
2022-08-09T02:37:24.193Z,74.11
2022-08-09T02:39:42.090Z,73.28
2022-08-09T02:41:52.483Z,73.20
2022-08-09T02:44:10.353Z,73.22
2022-08-09T02:46:30.647Z,73.20
2022-08-09T02:48:37.810Z,72.99
2022-08-09T02:50:44.901Z,72.96
2022-08-09T02:52:55.339Z,72.91
2022-08-09T02:55:03.261Z,72.90
2022-08-09T02:57:25.501Z,72.79
2022-08-09T02:59:36.595Z,73.17
2022-08-09T03:01:43.132Z,73.17
2022-08-09T03:04:17.660Z,73.38
2022-08-09T03:06:25.083Z,73.21
2022-08-09T03:08:32.354Z,73.50
2022-08-09T03:10:37.894Z,73.49
2022-08-09T03:12:43.355Z,73.31
2022-08-09T03:14:55.208Z,73.62
2022-08-09T03:17:01.816Z,73.49
2022-08-09T03:19:52.836Z,73.76
2022-08-09T03:21:36.418Z,73.69
2022-08-09T03:24:01.566Z,73.78
2022-08-09T03:26:08.817Z,73.90
2022-08-09T03:28:13.692Z,74.23
2022-08-09T03:30:30.254Z,74.21
2022-08-09T03:32:39.316Z,74.50
2022-08-09T03:34:44.487Z,74.83
2022-08-09T03:36:59.432Z,75.07
2022-08-09T03:39:06.442Z,74.98
2022-08-09T03:41:10.287Z,75.29
2022-08-09T03:43:19.429Z,75.14
2022-08-09T03:46:04.569Z,75.53
2022-08-09T03:47:47.881Z,75.45
2022-08-09T03:49:58.223Z,75.23
2022-08-09T03:52:04.157Z,75.09
2022-08-09T03:54:10.885Z,74.89
2022-08-09T03:56:15.230Z,75.02
2022-08-09T03:58:21.027Z,74.95
2022-08-09T04:00:25.343Z,75.17
2022-08-09T04:02:32.576Z,75.25
2022-08-09T04:04:38.747Z,75.36
2022-08-09T04:06:49.307Z,75.37
2022-08-09T04:08:53.733Z,75.44
2022-08-09T04:11:01.342Z,75.60
2022-08-09T04:13:11.526Z,75.53
2022-08-09T04:15:29.703Z,74.94
2022-08-09T04:17:42.283Z,75.14
2022-08-09T04:19:51.517Z,75.23
2022-08-09T04:22:03.202Z,75.07
2022-08-09T04:24:07.300Z,75.33
2022-08-09T04:26:11.242Z,75.60
2022-08-09T04:28:14.780Z,75.25
2022-08-09T04:30:37.550Z,75.78
2022-08-09T04:32:47.678Z,75.53
2022-08-09T04:34:54.381Z,75.79
2022-08-09T04:37:03.565Z,75.82
2022-08-09T04:39:09.921Z,75.95
2022-08-09T04:41:15.654Z,76.20
2022-08-09T04:43:20.351Z,76.45
2022-08-09T04:45:25.090Z,76.78
2022-08-09T04:47:59.145Z,76.79
2022-08-09T04:49:57.481Z,77.12
2022-08-09T04:52:02.488Z,76.95
2022-08-09T04:54:06.903Z,77.17
2022-08-09T04:56:10.881Z,77.42
2022-08-09T04:58:14.517Z,77.08
2022-08-09T05:00:18.395Z,77.46
2022-08-09T05:02:22.072Z,77.68
2022-08-09T05:04:31.261Z,77.63
2022-08-09T05:06:36.043Z,77.42
2022-08-09T05:08:43.985Z,77.18
2022-08-09T05:10:51.521Z,77.12
2022-08-09T05:12:55.213Z,77.31
2022-08-09T05:14:59.027Z,77.24
2022-08-09T05:17:02.750Z,76.83
2022-08-09T05:19:07.727Z,76.81
2022-08-09T05:21:24.383Z,76.41
2022-08-09T05:23:54.467Z,76.04
2022-08-09T05:25:54.159Z,76.24
2022-08-09T05:28:00.654Z,76.11
2022-08-09T05:30:04.747Z,76.01
2022-08-09T05:32:10.499Z,75.93
2022-08-09T05:34:16.505Z,75.74
2022-08-09T05:36:21.120Z,75.67
2022-08-09T05:38:30.054Z,75.48
2022-08-09T05:40:34.858Z,75.28
2022-08-09T05:42:40.240Z,75.08
2022-08-09T05:44:43.994Z,74.76
2022-08-09T05:46:47.648Z,74.70
2022-08-09T05:48:58.950Z,74.54
2022-08-09T05:51:30.309Z,74.24
2022-08-09T05:53:31.635Z,74.00
2022-08-09T05:55:37.167Z,73.84
2022-08-09T05:57:57.183Z,73.55
2022-08-09T06:00:01.957Z,73.42
2022-08-09T06:02:17.090Z,72.73
2022-08-09T06:04:23.434Z,72.72
2022-08-09T06:06:28.026Z,72.37
2022-08-09T06:08:31.733Z,72.04
2022-08-09T06:10:41.659Z,71.33
2022-08-09T06:12:52.095Z,70.39
2022-08-09T06:15:10.089Z,69.03
2022-08-09T06:17:13.949Z,67.87
2022-08-09T06:19:17.962Z,67.73
2022-08-09T06:21:24.673Z,67.20
2022-08-09T06:23:57.777Z,66.80
2022-08-09T06:25:55.181Z,64.86
2022-08-09T06:28:00.844Z,62.08
2022-08-09T06:30:09.910Z,59.48
2022-08-09T06:32:59.510Z,56.74
2022-08-09T06:34:38.153Z,53.43
2022-08-09T06:36:43.757Z,51.36
2022-08-09T06:38:50.294Z,48.48
2022-08-09T06:40:54.953Z,47.04
2022-08-09T06:43:01.344Z,45.90
2022-08-09T06:46:07.477Z,45.82
2022-08-09T06:47:39.870Z,45.37
2022-08-09T06:50:14.818Z,44.54
2022-08-09T06:52:09.189Z,43.79
2022-08-09T06:54:15.004Z,42.74
2022-08-09T06:56:18.887Z,42.63
2022-08-09T06:58:40.654Z,41.55
2022-08-09T07:00:58.759Z,41.94
2022-08-09T07:03:06.105Z,41.30
2022-08-09T07:05:10.508Z,41.21
2022-08-09T07:07:58.853Z,40.43
2022-08-09T07:11:25.617Z,40.71
2022-08-09T07:13:30.434Z,40.90
2022-08-09T07:15:53.870Z,40.62
2022-08-09T07:18:02.324Z,40.77
2022-08-09T07:20:08.103Z,41.30
2022-08-09T07:22:11.955Z,41.30
2022-08-09T07:24:17.894Z,41.26
2022-08-09T07:26:23.096Z,40.72
2022-08-09T07:28:28.363Z,40.82
2022-08-09T07:30:33.041Z,41.04
2022-08-09T07:32:37.032Z,40.57
2022-08-09T07:34:43.904Z,40.42
2022-08-09T07:36:51.084Z,39.93
2022-08-09T07:39:00.913Z,40.29
2022-08-09T07:41:12.043Z,40.80
2022-08-09T07:43:18.208Z,41.34
2022-08-09T07:45:37.543Z,41.28
2022-08-09T07:48:00.872Z,41.31
2022-08-09T07:50:09.558Z,41.69
2022-08-09T07:52:17.841Z,41.79
2022-08-09T07:54:28.218Z,41.68
2022-08-09T07:56:34.923Z,41.59
2022-08-09T07:58:42.330Z,40.93
2022-08-09T08:00:58.915Z,41.07
2022-08-09T08:03:11.566Z,40.92
2022-08-09T08:05:18.061Z,40.24
2022-08-09T08:08:45.216Z,40.43
2022-08-09T08:09:53.563Z,40.11
2022-08-09T08:12:24.840Z,40.64
2022-08-09T08:14:33.516Z,41.34
2022-08-09T08:16:39.693Z,42.03
2022-08-09T08:18:55.307Z,42.51
2022-08-09T08:20:59.596Z,42.51
2022-08-09T08:23:16.673Z,43.83
2022-08-09T08:25:21.236Z,45.11
2022-08-09T08:27:26.155Z,46.21
2022-08-09T08:29:39.379Z,47.45
2022-08-09T08:32:03.317Z,48.54
2022-08-09T08:34:09.328Z,49.37
2022-08-09T08:36:29.157Z,50.06
2022-08-09T08:38:33.488Z,50.87
2022-08-09T08:40:38.037Z,51.57
2022-08-09T08:42:47.226Z,51.89
2022-08-09T08:44:56.567Z,52.34
2022-08-09T08:47:05.043Z,53.10
2022-08-09T08:49:19.043Z,53.26
2022-08-09T08:51:24.000Z,53.60
2022-08-09T08:53:32.201Z,54.03
2022-08-09T08:55:42.248Z,54.23
2022-08-09T08:57:56.391Z,54.11
2022-08-09T09:00:01.526Z,54.48
2022-08-09T09:02:08.721Z,54.49
2022-08-09T09:04:14.588Z,54.48
2022-08-09T09:06:20.882Z,54.31
2022-08-09T09:08:30.612Z,53.89
2022-08-09T09:10:36.652Z,53.88
2022-08-09T09:12:41.508Z,53.32
2022-08-09T09:14:47.875Z,53.40
2022-08-09T09:16:52.225Z,52.98
2022-08-09T09:19:22.555Z,52.78
2022-08-09T09:21:26.115Z,52.29
2022-08-09T09:23:41.865Z,52.40
2022-08-09T09:26:03.097Z,52.42
2022-08-09T09:28:11.550Z,52.14
2022-08-09T09:30:40.826Z,52.03
2022-08-09T09:32:45.360Z,51.95
2022-08-09T09:35:09.425Z,51.38
2022-08-09T09:37:32.226Z,51.31
2022-08-09T09:39:54.510Z,51.15
2022-08-09T09:41:59.895Z,50.87
2022-08-09T09:44:12.420Z,50.56
2022-08-09T09:48:57.953Z,50.00
2022-08-09T09:51:03.508Z,50.02
2022-08-09T09:53:09.020Z,49.78
2022-08-09T09:55:27.818Z,49.60
2022-08-09T09:58:01.333Z,49.29
2022-08-09T09:59:59.729Z,48.71
2022-08-09T10:02:03.881Z,48.01
2022-08-09T10:04:16.317Z,47.97
2022-08-09T10:06:32.178Z,47.94
2022-08-09T10:08:43.090Z,47.69
2022-08-09T10:10:59.257Z,47.56
2022-08-09T10:13:03.048Z,47.58
2022-08-09T10:15:17.458Z,47.78
2022-08-09T10:17:50.365Z,47.28
2022-08-09T10:19:59.295Z,46.89
2022-08-09T10:22:05.178Z,46.27
2022-08-09T10:24:09.709Z,45.96
2022-08-09T10:26:21.636Z,45.97
2022-08-09T10:28:29.273Z,46.37
2022-08-09T10:32:13.583Z,47.15
2022-08-09T10:32:57.526Z,47.03
2022-08-09T10:35:03.337Z,47.29
2022-08-09T10:37:09.874Z,47.56
2022-08-09T10:39:21.116Z,47.75
2022-08-09T10:41:24.775Z,48.11
2022-08-09T10:43:36.109Z,47.80
2022-08-09T10:45:59.965Z,47.96
2022-08-09T10:48:19.382Z,48.34
2022-08-09T10:51:03.672Z,49.48
2022-08-09T10:53:21.306Z,49.94
2022-08-09T10:55:28.475Z,49.92
2022-08-09T10:57:41.804Z,49.63
2022-08-09T10:59:58.114Z,49.29
2022-08-09T11:03:16.372Z,48.78
2022-08-09T11:04:32.601Z,48.08
2022-08-09T11:07:57.934Z,47.78
2022-08-09T11:09:59.801Z,47.50
2022-08-09T11:12:17.229Z,47.53
2022-08-09T11:14:32.436Z,46.99
2022-08-09T11:16:39.201Z,46.78
2022-08-09T11:18:46.254Z,46.97
2022-08-09T11:20:53.006Z,46.71
2022-08-09T11:23:10.066Z,46.60
2022-08-09T11:25:16.596Z,46.67
2022-08-09T11:28:02.394Z,46.49
2022-08-09T11:30:04.841Z,46.55
2022-08-09T11:32:46.552Z,46.56
2022-08-09T11:34:53.467Z,46.99
2022-08-09T11:37:00.590Z,46.86
2022-08-09T11:39:05.599Z,46.72
2022-08-09T11:41:37.867Z,46.86
2022-08-09T11:43:49.090Z,46.63
2022-08-09T11:45:57.611Z,46.43
2022-08-09T11:48:11.104Z,46.44
2022-08-09T11:50:57.034Z,46.12
2022-08-09T11:54:01.695Z,45.46
2022-08-09T11:58:50.185Z,46.76
2022-08-09T12:00:56.361Z,46.18
2022-08-09T12:03:40.972Z,46.74
2022-08-09T12:05:37.994Z,46.76
2022-08-09T12:07:44.630Z,46.91
2022-08-09T12:09:51.284Z,46.60
2022-08-09T12:12:03.378Z,46.21
2022-08-09T12:14:12.406Z,46.27
2022-08-09T12:16:39.850Z,45.99
2022-08-09T12:18:48.988Z,45.84
2022-08-09T12:21:00.295Z,46.15
2022-08-09T12:23:05.483Z,46.29
2022-08-09T12:25:14.878Z,46.55
2022-08-09T12:29:10.358Z,46.09
2022-08-09T12:30:01.910Z,46.57
2022-08-09T12:32:27.210Z,46.93
2022-08-09T12:34:35.027Z,47.08
2022-08-09T12:36:52.760Z,47.10
2022-08-09T12:39:04.220Z,46.45
2022-08-09T12:41:08.653Z,45.88
2022-08-09T12:43:14.482Z,46.28
2022-08-09T12:45:34.672Z,46.98
2022-08-09T12:47:45.043Z,47.09
2022-08-09T12:50:11.617Z,46.97
2022-08-09T12:52:15.627Z,46.83
2022-08-09T12:54:23.893Z,47.01
2022-08-09T12:56:39.619Z,46.93
2022-08-09T12:59:08.064Z,46.74
2022-08-09T13:01:26.742Z,46.52
2022-08-09T13:03:53.780Z,46.34
2022-08-09T13:06:14.524Z,46.28
2022-08-09T13:08:40.062Z,46.72
2022-08-09T13:10:52.468Z,47.22
2022-08-09T13:13:09.599Z,47.31
2022-08-09T13:15:15.023Z,47.51
2022-08-09T13:17:58.627Z,47.42
2022-08-09T13:20:10.653Z,46.99
2022-08-09T13:22:36.527Z,47.11
2022-08-09T13:24:53.838Z,47.27
2022-08-09T13:26:58.870Z,47.13
2022-08-09T13:29:07.744Z,47.26
2022-08-09T13:32:15.991Z,47.05
2022-08-09T13:33:53.015Z,47.09
2022-08-09T13:36:24.422Z,47.22
2022-08-09T13:38:56.253Z,47.17
2022-08-09T13:41:51.585Z,47.23
2022-08-09T13:43:09.955Z,47.31
2022-08-09T13:45:19.928Z,47.41
2022-08-09T13:47:31.331Z,47.58
2022-08-09T13:49:57.550Z,47.38
2022-08-09T13:52:08.897Z,47.19
2022-08-09T13:54:13.448Z,47.68
2022-08-09T13:56:18.199Z,47.71
2022-08-09T13:58:23.926Z,47.93
2022-08-09T14:00:30.470Z,47.76
2022-08-09T14:02:42.233Z,47.97
2022-08-09T14:04:49.370Z,47.96
2022-08-09T14:07:05.951Z,48.18
2022-08-09T14:09:11.224Z,48.09
2022-08-09T14:11:16.601Z,48.35
2022-08-09T14:13:27.643Z,48.46
2022-08-09T14:16:06.513Z,48.08
2022-08-09T14:18:18.613Z,48.00
2022-08-09T14:20:19.562Z,47.85
2022-08-09T14:22:24.602Z,47.92
2022-08-09T14:24:32.546Z,47.82
2022-08-09T14:26:37.665Z,47.90
2022-08-09T14:28:41.638Z,48.14
2022-08-09T14:30:45.594Z,47.81
2022-08-09T14:32:50.692Z,47.98
2022-08-09T14:34:55.775Z,47.85
2022-08-09T14:37:01.599Z,47.83
2022-08-09T14:39:08.931Z,47.75
2022-08-09T14:41:39.830Z,47.65
2022-08-09T14:43:46.941Z,47.60
2022-08-09T14:46:57.172Z,47.51
2022-08-09T14:48:15.523Z,47.75
2022-08-09T14:50:20.750Z,47.50
2022-08-09T14:52:25.379Z,47.43
2022-08-09T14:54:30.465Z,47.31
2022-08-09T14:56:57.287Z,47.49
2022-08-09T14:59:01.492Z,47.45
2022-08-09T15:01:05.757Z,47.49
2022-08-09T15:03:10.932Z,47.45
2022-08-09T15:05:16.093Z,47.45
2022-08-09T15:07:20.069Z,47.34
2022-08-09T15:09:51.954Z,47.54
2022-08-09T15:11:49.781Z,47.14
2022-08-09T15:14:01.627Z,47.11
2022-08-09T15:16:10.167Z,47.29
2022-08-09T15:18:14.738Z,47.38
2022-08-09T15:22:00.856Z,47.28
2022-08-09T15:22:46.649Z,47.10
2022-08-09T15:24:51.185Z,47.44
2022-08-09T15:26:57.946Z,47.41
2022-08-09T15:29:04.982Z,47.10
2022-08-09T15:31:13.330Z,47.35
2022-08-09T15:33:28.053Z,47.14
2022-08-09T15:36:01.913Z,46.95
2022-08-09T15:38:11.883Z,46.88
2022-08-09T15:40:19.878Z,46.66
2022-08-09T15:42:25.514Z,46.87
2022-08-09T15:44:29.293Z,46.90
2022-08-09T15:46:36.505Z,47.08
2022-08-09T15:48:42.650Z,46.72
2022-08-09T15:51:30.340Z,46.43
2022-08-09T15:54:04.484Z,46.35
2022-08-09T15:56:21.079Z,46.15
2022-08-09T15:58:26.530Z,46.13
2022-08-09T16:00:31.143Z,46.17
2022-08-09T16:02:36.008Z,46.19
2022-08-09T16:04:39.723Z,46.18
2022-08-09T16:06:50.494Z,46.29
2022-08-09T16:08:56.299Z,45.99
2022-08-09T16:11:05.555Z,45.87
2022-08-09T16:13:20.948Z,45.95
2022-08-09T16:16:10.740Z,45.60
2022-08-09T16:18:01.704Z,46.11
2022-08-09T16:20:09.230Z,46.24
2022-08-09T16:22:15.851Z,46.26
2022-08-09T16:24:29.990Z,46.31
2022-08-09T16:26:37.482Z,46.19
2022-08-09T16:28:41.532Z,46.16
2022-08-09T16:30:58.432Z,46.43
2022-08-09T16:33:11.886Z,46.40
2022-08-09T16:35:56.035Z,46.28
2022-08-09T16:37:54.448Z,46.11
2022-08-09T16:40:05.476Z,46.05
2022-08-09T16:42:09.519Z,46.47
2022-08-09T16:44:19.325Z,46.39
2022-08-09T16:46:27.500Z,46.25
2022-08-09T16:48:40.193Z,46.19
2022-08-09T16:50:59.708Z,46.29
2022-08-09T16:53:12.287Z,46.05
2022-08-09T16:55:19.468Z,46.03
2022-08-09T16:57:23.374Z,46.51
2022-08-09T16:59:27.449Z,45.94
2022-08-09T17:01:43.117Z,46.13
2022-08-09T17:03:55.003Z,46.06
2022-08-09T17:06:07.520Z,46.06
2022-08-09T17:08:44.381Z,46.28
2022-08-09T17:10:47.660Z,45.98
2022-08-09T17:12:56.508Z,45.80
2022-08-09T17:15:00.289Z,46.01
2022-08-09T17:17:26.079Z,46.12
2022-08-09T17:19:46.545Z,46.18
2022-08-09T17:21:56.063Z,46.51
2022-08-09T17:24:21.122Z,46.35
2022-08-09T17:26:31.342Z,46.23
2022-08-09T17:28:36.225Z,46.30
2022-08-09T17:30:40.654Z,46.22
2022-08-09T17:32:52.914Z,46.30
2022-08-09T17:35:07.596Z,46.07
2022-08-09T17:37:19.966Z,46.35
2022-08-09T17:39:25.594Z,46.16
2022-08-09T17:41:49.950Z,46.09
2022-08-09T17:44:38.088Z,45.91
2022-08-09T17:46:18.420Z,45.83
2022-08-09T17:48:46.486Z,45.85
2022-08-09T17:50:59.251Z,46.01
2022-08-09T17:53:21.599Z,45.78
2022-08-09T17:55:34.474Z,45.76
2022-08-09T17:58:03.023Z,46.07
2022-08-09T18:00:09.747Z,46.07
2022-08-09T18:02:19.733Z,45.99
2022-08-09T18:04:31.524Z,46.16
2022-08-09T18:06:36.759Z,46.10
2022-08-09T18:08:41.262Z,46.46
2022-08-09T18:10:46.183Z,46.70
2022-08-09T18:13:39.363Z,46.72
2022-08-09T18:15:50.667Z,46.83
2022-08-09T18:18:03.377Z,46.83
2022-08-09T18:20:59.879Z,46.85
2022-08-09T18:22:34.475Z,46.92
2022-08-09T18:24:38.249Z,47.06
2022-08-09T18:26:46.266Z,46.99
2022-08-09T18:30:39.172Z,47.16
2022-08-09T18:31:14.953Z,47.21
2022-08-09T18:33:28.578Z,47.45
2022-08-09T18:36:00.009Z,47.51
2022-08-09T18:37:58.927Z,47.66
2022-08-09T18:40:03.109Z,47.73
2022-08-09T18:42:08.084Z,47.61
2022-08-09T18:44:13.758Z,47.90
2022-08-09T18:46:47.091Z,47.68
2022-08-09T18:48:42.275Z,47.78
2022-08-09T18:50:47.862Z,48.11
2022-08-09T18:52:51.461Z,48.08
2022-08-09T18:54:55.675Z,48.13
2022-08-09T18:57:05.938Z,47.97
2022-08-09T18:59:10.477Z,48.23
2022-08-09T19:01:14.249Z,47.97
2022-08-09T19:03:19.418Z,47.84
2022-08-09T19:05:28.767Z,47.81
2022-08-09T19:08:04.339Z,48.20
2022-08-09T19:10:17.912Z,48.29
2022-08-09T19:12:22.033Z,48.30
2022-08-09T19:14:29.380Z,48.42
2022-08-09T19:16:36.605Z,48.75
2022-08-09T19:18:45.394Z,48.78
2022-08-09T19:20:52.288Z,48.77
2022-08-09T19:23:05.460Z,48.57
2022-08-09T19:25:41.971Z,48.83
2022-08-09T19:27:36.092Z,48.97
2022-08-09T19:30:21.577Z,49.04
2022-08-09T19:32:05.583Z,49.16
2022-08-09T19:34:09.547Z,49.27
2022-08-09T19:36:30.958Z,49.28
2022-08-09T19:38:39.831Z,49.41
2022-08-09T19:40:43.931Z,49.65
2022-08-09T19:42:53.565Z,49.79
2022-08-09T19:44:57.752Z,50.00
2022-08-09T19:47:01.705Z,50.16
2022-08-09T19:50:10.247Z,50.43
2022-08-09T19:51:31.075Z,50.37
2022-08-09T19:53:37.281Z,50.53
2022-08-09T19:56:03.307Z,50.70
2022-08-09T19:58:16.173Z,50.63
2022-08-09T20:00:20.999Z,50.88
2022-08-09T20:04:24.030Z,51.07
2022-08-09T20:04:54.882Z,51.32
2022-08-09T20:06:59.692Z,51.54
2022-08-09T20:09:07.812Z,52.02
2022-08-09T20:11:13.899Z,51.92
2022-08-09T20:13:20.705Z,51.85
2022-08-09T20:16:38.603Z,52.23
2022-08-09T20:17:54.702Z,52.24
2022-08-09T20:19:58.892Z,52.53
2022-08-09T20:22:02.827Z,52.57
2022-08-09T20:24:09.238Z,52.91
2022-08-09T20:26:15.458Z,52.97
2022-08-09T20:28:28.041Z,53.08
2022-08-09T20:30:38.283Z,53.57
2022-08-09T20:32:48.107Z,53.45
2022-08-09T20:34:52.001Z,54.18
2022-08-09T20:36:56.012Z,54.22
2022-08-09T20:39:28.581Z,54.60
2022-08-09T20:41:32.197Z,54.68
2022-08-09T20:43:39.458Z,54.83
2022-08-09T20:46:00.566Z,54.99
2022-08-09T20:48:13.062Z,55.26
2022-08-09T20:50:47.789Z,55.42
2022-08-09T20:52:49.073Z,55.53
2022-08-09T20:54:56.677Z,55.95
2022-08-09T20:57:03.913Z,56.69
2022-08-09T20:59:08.089Z,57.25
2022-08-09T21:01:35.443Z,57.47
2022-08-09T21:04:07.654Z,57.56
2022-08-09T21:06:04.104Z,57.87
2022-08-09T21:08:08.934Z,58.11
2022-08-09T21:10:14.587Z,58.40
2022-08-09T21:12:19.586Z,58.88
2022-08-09T21:14:23.212Z,58.83
2022-08-09T21:16:30.310Z,59.17
2022-08-09T21:18:34.663Z,59.13
2022-08-09T21:20:58.466Z,59.40
2022-08-09T21:23:02.351Z,59.61
2022-08-09T21:25:44.293Z,60.01
2022-08-09T21:27:59.482Z,60.05
2022-08-09T21:30:04.467Z,60.04
2022-08-09T21:32:09.074Z,60.42
2022-08-09T21:34:29.482Z,61.07
2022-08-09T21:36:33.403Z,61.47
2022-08-09T21:38:37.652Z,61.58
2022-08-09T21:40:43.365Z,61.78
2022-08-09T21:42:54.579Z,61.85
2022-08-09T21:44:59.885Z,61.94
2022-08-09T21:47:05.203Z,62.25
2022-08-09T21:49:09.219Z,62.28
2022-08-09T21:51:16.645Z,62.63
2022-08-09T21:53:40.070Z,62.56
2022-08-09T21:55:46.462Z,62.51
2022-08-09T21:57:58.863Z,63.38
2022-08-09T22:00:07.147Z,63.36
2022-08-09T22:02:35.976Z,64.40
2022-08-09T22:04:56.649Z,63.06
2022-08-09T22:07:04.801Z,63.66
2022-08-09T22:09:11.040Z,63.61
2022-08-09T22:12:05.613Z,63.75
2022-08-09T22:13:38.583Z,63.89
2022-08-09T22:15:48.157Z,64.48
2022-08-09T22:17:52.159Z,64.36
2022-08-09T22:19:59.734Z,64.61
2022-08-09T22:22:04.579Z,64.78
2022-08-09T22:24:08.530Z,64.82
2022-08-09T22:26:34.095Z,65.41
2022-08-09T22:28:47.095Z,65.45
2022-08-09T22:30:58.224Z,65.91
2022-08-09T22:33:01.759Z,65.97
2022-08-09T22:36:00.700Z,66.42
2022-08-09T22:37:40.020Z,66.33
2022-08-09T22:39:55.565Z,66.69
2022-08-09T22:42:02.704Z,66.84
2022-08-09T22:44:07.526Z,67.11
2022-08-09T22:48:15.522Z,66.90
2022-08-09T22:48:38.853Z,67.61
2022-08-09T22:50:54.226Z,67.70
2022-08-09T22:52:58.631Z,67.96
2022-08-09T22:55:02.552Z,68.00
2022-08-09T22:57:06.525Z,68.14
2022-08-09T22:59:56.206Z,68.62
2022-08-09T23:01:40.765Z,68.42
2022-08-09T23:04:03.243Z,68.68
2022-08-09T23:06:08.115Z,68.42
2022-08-09T23:08:31.989Z,68.90
2022-08-09T23:10:38.199Z,68.94
2022-08-09T23:12:45.608Z,68.95
2022-08-09T23:14:49.168Z,69.28
2022-08-09T23:16:59.188Z,69.90
2022-08-09T23:19:02.817Z,69.70
2022-08-09T23:21:06.895Z,69.89
2022-08-09T23:23:10.916Z,70.19
2022-08-09T23:25:14.822Z,69.99
2022-08-09T23:27:18.617Z,70.07
2022-08-09T23:29:22.189Z,70.68
2022-08-09T23:31:25.933Z,70.85
2022-08-09T23:33:31.362Z,70.93
2022-08-09T23:36:04.507Z,70.63
2022-08-09T23:37:59.961Z,70.89
2022-08-09T23:40:03.932Z,70.84
2022-08-09T23:42:07.744Z,71.07
2022-08-09T23:44:11.302Z,71.04
2022-08-09T23:46:15.369Z,71.14
2022-08-09T23:48:19.846Z,71.06
2022-08-09T23:50:24.945Z,71.42
2022-08-09T23:52:28.597Z,71.75
2022-08-09T23:54:34.688Z,71.97
2022-08-09T23:56:52.325Z,71.96
2022-08-09T23:58:58.680Z,71.70
